Winneconne, Wisconsin
Current Conditions -  °F | °C
As of 5:53 AM on Sunday 23 Nov 2014 (Local Time) from KOSH Reporting Station
Haze Haze  
Wind Chill: 42°   Ceiling: 600
Heat Index: 47°   Visibility: 3mi
Dew Point: 45°   Wind: 12mph
Humidity: 93%   Direction: 190°S
Pressure: 29.65"   Gusts: NA
Location:  44.11°N, 88.71°W
Report Text: KOSH 231153Z 19010KT 3SM BR OVC006 08/07 A2965 RMK AO2 SLP046 T00830072 10089 20083 56006
Loading
Personal Weather Stations






























Interactive Weather Map New forecast layout! Learn more

10-Day Weather Forecast

Advertisements
Track Severe Weather on mobile